sensor_id;sensor_type;location;lat;lon;timestamp;pressure;altitude;pressure_sealevel;temperature;humidity
48824;BME280;34640;53.590;10.054;2023-12-20T00:00:21;100582.59;;;6.13;100.00
48824;BME280;34640;53.590;10.054;2023-12-20T00:02:56;100582.50;;;6.11;100.00
48824;BME280;34640;53.590;10.054;2023-12-20T00:05:32;100575.16;;;6.06;100.00
48824;BME280;34640;53.590;10.054;2023-12-20T00:08:05;100573.06;;;6.12;100.00
48824;BME280;34640;53.590;10.054;2023-12-20T00:10:38;100580.94;;;6.13;100.00
48824;BME280;34640;53.590;10.054;2023-12-20T00:13:11;100569.78;;;6.03;100.00
48824;BME280;34640;53.590;10.054;2023-12-20T00:15:44;100571.13;;;5.98;100.00
48824;BME280;34640;53.590;10.054;2023-12-20T00:18:18;100575.50;;;5.99;100.00
48824;BME280;34640;53.590;10.054;2023-12-20T00:20:51;100562.34;;;5.96;100.00
48824;BME280;34640;53.590;10.054;2023-12-20T00:23:24;100557.88;;;5.93;100.00
48824;BME280;34640;53.590;10.054;2023-12-20T00:25:58;100562.13;;;5.93;100.00
48824;BME280;34640;53.590;10.054;2023-12-20T00:28:31;100558.97;;;5.97;100.00
48824;BME280;34640;53.590;10.054;2023-12-20T00:31:04;100564.84;;;5.94;100.00
48824;BME280;34640;53.590;10.054;2023-12-20T00:33:39;100558.88;;;5.95;100.00
48824;BME280;34640;53.590;10.054;2023-12-20T00:36:15;100556.06;;;6.04;100.00
48824;BME280;34640;53.590;10.054;2023-12-20T00:38:48;100546.63;;;6.04;100.00
48824;BME280;34640;53.590;10.054;2023-12-20T00:41:23;100551.13;;;6.07;100.00
48824;BME280;34640;53.590;10.054;2023-12-20T00:43:56;100554.84;;;6.10;100.00
48824;BME280;34640;53.590;10.054;2023-12-20T00:46:28;100539.66;;;6.03;100.00
48824;BME280;34640;53.590;10.054;2023-12-20T00:49:03;100537.28;;;6.06;100.00
48824;BME280;34640;53.590;10.054;2023-12-20T00:51:35;100533.16;;;6.08;100.00
48824;BME280;34640;53.590;10.054;2023-12-20T00:54:09;100524.25;;;6.05;100.00
48824;BME280;34640;53.590;10.054;2023-12-20T00:56:42;100522.69;;;6.07;100.00
48824;BME280;34640;53.590;10.054;2023-12-20T00:59:16;100521.34;;;6.00;100.00
48824;BME280;34640;53.590;10.054;2023-12-20T01:01:50;100530.22;;;6.04;100.00
48824;BME280;34640;53.590;10.054;2023-12-20T01:04:24;100520.09;;;6.07;100.00
48824;BME280;34640;53.590;10.054;2023-12-20T01:07:00;100520.78;;;6.04;100.00
48824;BME280;34640;53.590;10.054;2023-12-20T01:09:33;100524.81;;;6.01;100.00
48824;BME280;34640;53.590;10.054;2023-12-20T01:12:06;100533.28;;;6.10;100.00
48824;BME280;34640;53.590;10.054;2023-12-20T01:14:39;100521.78;;;5.95;100.00
48824;BME280;34640;53.590;10.054;2023-12-20T01:17:12;100522.59;;;5.94;100.00
48824;BME280;34640;53.590;10.054;2023-12-20T01:19:46;100521.69;;;5.93;100.00
48824;BME280;34640;53.590;10.054;2023-12-20T01:22:19;100513.19;;;5.84;100.00
48824;BME280;34640;53.590;10.054;2023-12-20T01:24:52;100510.16;;;5.78;100.00
48824;BME280;34640;53.590;10.054;2023-12-20T01:27:25;100507.13;;;5.72;100.00
48824;BME280;34640;53.590;10.054;2023-12-20T01:29:58;100511.75;;;5.64;100.00
48824;BME280;34640;53.590;10.054;2023-12-20T01:32:31;100507.59;;;5.66;100.00
48824;BME280;34640;53.590;10.054;2023-12-20T01:35:07;100509.28;;;5.66;100.00
48824;BME280;34640;53.590;10.054;2023-12-20T01:37:40;100509.81;;;5.62;100.00
48824;BME280;34640;53.590;10.054;2023-12-20T01:40:14;100519.50;;;5.64;100.00
48824;BME280;34640;53.590;10.054;2023-12-20T01:42:47;100513.28;;;5.62;100.00
48824;BME280;34640;53.590;10.054;2023-12-20T01:45:20;100514.84;;;5.60;100.00
48824;BME280;34640;53.590;10.054;2023-12-20T01:47:54;100504.53;;;5.60;100.00
48824;BME280;34640;53.590;10.054;2023-12-20T01:50:29;100486.44;;;5.60;100.00
48824;BME280;34640;53.590;10.054;2023-12-20T01:53:05;100492.28;;;5.58;100.00
48824;BME280;34640;53.590;10.054;2023-12-20T01:55:40;100490.41;;;5.67;100.00
48824;BME280;34640;53.590;10.054;2023-12-20T01:58:14;100497.03;;;5.75;100.00
48824;BME280;34640;53.590;10.054;2023-12-20T02:00:48;100499.06;;;5.79;100.00
48824;BME280;34640;53.590;10.054;2023-12-20T02:03:21;100485.81;;;5.86;100.00
48824;BME280;34640;53.590;10.054;2023-12-20T02:05:56;100481.81;;;5.90;100.00
48824;BME280;34640;53.590;10.054;2023-12-20T02:08:29;100486.72;;;5.87;100.00
48824;BME280;34640;53.590;10.054;2023-12-20T02:11:02;100475.06;;;5.92;100.00
48824;BME280;34640;53.590;10.054;2023-12-20T02:13:35;100471.97;;;5.74;100.00
48824;BME280;34640;53.590;10.054;2023-12-20T02:16:08;100467.94;;;5.77;100.00
48824;BME280;34640;53.590;10.054;2023-12-20T02:18:42;100464.09;;;5.84;100.00
48824;BME280;34640;53.590;10.054;2023-12-20T02:21:17;100456.34;;;5.84;100.00
48824;BME280;34640;53.590;10.054;2023-12-20T02:23:51;100445.81;;;5.69;100.00
48824;BME280;34640;53.590;10.054;2023-12-20T02:26:25;100455.81;;;5.76;100.00
48824;BME280;34640;53.590;10.054;2023-12-20T02:28:58;100459.41;;;5.78;100.00
48824;BME280;34640;53.590;10.054;2023-12-20T02:31:33;100450.75;;;5.78;100.00
48824;BME280;34640;53.590;10.054;2023-12-20T02:34:06;100459.28;;;5.77;100.00
48824;BME280;34640;53.590;10.054;2023-12-20T02:36:38;100450.13;;;5.92;100.00
48824;BME280;34640;53.590;10.054;2023-12-20T02:39:13;100447.06;;;5.86;100.00
48824;BME280;34640;53.590;10.054;2023-12-20T02:41:46;100450.66;;;6.00;100.00
48824;BME280;34640;53.590;10.054;2023-12-20T02:44:19;100455.94;;;6.01;100.00
48824;BME280;34640;53.590;10.054;2023-12-20T02:46:52;100456.84;;;6.13;100.00
48824;BME280;34640;53.590;10.054;2023-12-20T02:49:25;100450.31;;;6.07;100.00
48824;BME280;34640;53.590;10.054;2023-12-20T02:51:58;100445.28;;;6.08;100.00
48824;BME280;34640;53.590;10.054;2023-12-20T02:54:33;100448.41;;;6.16;100.00
48824;BME280;34640;53.590;10.054;2023-12-20T02:57:06;100437.28;;;6.17;100.00
48824;BME280;34640;53.590;10.054;2023-12-20T02:59:39;100428.75;;;5.95;100.00
48824;BME280;34640;53.590;10.054;2023-12-20T03:02:12;100423.03;;;5.99;100.00
48824;BME280;34640;53.590;10.054;2023-12-20T03:04:45;100429.63;;;6.07;100.00
48824;BME280;34640;53.590;10.054;2023-12-20T03:07:18;100428.25;;;6.24;100.00
48824;BME280;34640;53.590;10.054;2023-12-20T03:09:52;100426.56;;;6.24;100.00
48824;BME280;34640;53.590;10.054;2023-12-20T03:12:45;100422.66;;;6.18;100.00
48824;BME280;34640;53.590;10.054;2023-12-20T03:15:18;100420.97;;;6.06;100.00
48824;BME280;34640;53.590;10.054;2023-12-20T03:17:51;100412.31;;;6.06;100.00
48824;BME280;34640;53.590;10.054;2023-12-20T03:20:24;100406.72;;;6.11;100.00
48824;BME280;34640;53.590;10.054;2023-12-20T03:22:57;100399.66;;;5.97;100.00
48824;BME280;34640;53.590;10.054;2023-12-20T03:25:32;100403.47;;;6.02;100.00
48824;BME280;34640;53.590;10.054;2023-12-20T03:28:05;100406.19;;;5.92;100.00
48824;BME280;34640;53.590;10.054;2023-12-20T03:30:38;100394.59;;;5.99;100.00
48824;BME280;34640;53.590;10.054;2023-12-20T03:33:12;100395.16;;;5.95;100.00
48824;BME280;34640;53.590;10.054;2023-12-20T03:35:45;100393.81;;;6.00;100.00
48824;BME280;34640;53.590;10.054;2023-12-20T03:38:18;100387.38;;;6.06;100.00
48824;BME280;34640;53.590;10.054;2023-12-20T03:40:52;100381.31;;;6.06;100.00
48824;BME280;34640;53.590;10.054;2023-12-20T03:43:25;100391.09;;;6.10;100.00
48824;BME280;34640;53.590;10.054;2023-12-20T03:45:58;100391.22;;;6.11;100.00
48824;BME280;34640;53.590;10.054;2023-12-20T03:48:31;100388.16;;;6.05;100.00
48824;BME280;34640;53.590;10.054;2023-12-20T03:51:05;100380.09;;;6.01;100.00
48824;BME280;34640;53.590;10.054;2023-12-20T03:53:39;100381.31;;;6.06;100.00
48824;BME280;34640;53.590;10.054;2023-12-20T03:56:13;100370.31;;;6.08;100.00
48824;BME280;34640;53.590;10.054;2023-12-20T03:58:46;100359.72;;;6.17;100.00
48824;BME280;34640;53.590;10.054;2023-12-20T04:01:19;100365.56;;;6.15;100.00
48824;BME280;34640;53.590;10.054;2023-12-20T04:03:52;100360.50;;;6.16;100.00
48824;BME280;34640;53.590;10.054;2023-12-20T04:06:25;100357.75;;;6.26;100.00
48824;BME280;34640;53.590;10.054;2023-12-20T04:08:58;100358.91;;;6.30;100.00
48824;BME280;34640;53.590;10.054;2023-12-20T04:11:33;100356.75;;;6.24;100.00
48824;BME280;34640;53.590;10.054;2023-12-20T04:14:06;100357.13;;;6.17;100.00
48824;BME280;34640;53.590;10.054;2023-12-20T04:16:40;100354.13;;;6.11;100.00
48824;BME280;34640;53.590;10.054;2023-12-20T04:19:17;100345.25;;;6.07;100.00
48824;BME280;34640;53.590;10.054;2023-12-20T04:21:50;100343.69;;;6.09;100.00
48824;BME280;34640;53.590;10.054;2023-12-20T04:24:23;100343.31;;;6.05;100.00
48824;BME280;34640;53.590;10.054;2023-12-20T04:26:57;100341.53;;;6.04;100.00
48824;BME280;34640;53.590;10.054;2023-12-20T04:29:30;100333.00;;;6.05;100.00
48824;BME280;34640;53.590;10.054;2023-12-20T04:32:04;100328.19;;;5.98;100.00
48824;BME280;34640;53.590;10.054;2023-12-20T04:34:37;100327.19;;;5.96;100.00
48824;BME280;34640;53.590;10.054;2023-12-20T04:37:10;100323.56;;;6.05;100.00
48824;BME280;34640;53.590;10.054;2023-12-20T04:39:44;100317.34;;;6.15;100.00
48824;BME280;34640;53.590;10.054;2023-12-20T04:42:18;100308.13;;;6.19;100.00
48824;BME280;34640;53.590;10.054;2023-12-20T04:44:52;100296.78;;;6.17;100.00
48824;BME280;34640;53.590;10.054;2023-12-20T04:47:25;100304.34;;;6.02;100.00
48824;BME280;34640;53.590;10.054;2023-12-20T04:49:58;100292.53;;;6.05;100.00
48824;BME280;34640;53.590;10.054;2023-12-20T04:52:32;100295.28;;;5.95;100.00
48824;BME280;34640;53.590;10.054;2023-12-20T04:55:05;100291.53;;;6.03;100.00
48824;BME280;34640;53.590;10.054;2023-12-20T04:57:39;100293.59;;;5.96;100.00
48824;BME280;34640;53.590;10.054;2023-12-20T05:00:13;100287.47;;;6.07;100.00
48824;BME280;34640;53.590;10.054;2023-12-20T05:02:48;100296.47;;;6.12;100.00
48824;BME280;34640;53.590;10.054;2023-12-20T05:05:21;100281.06;;;6.13;100.00
48824;BME280;34640;53.590;10.054;2023-12-20T05:07:54;100280.28;;;6.15;100.00
48824;BME280;34640;53.590;10.054;2023-12-20T05:10:27;100276.41;;;6.21;100.00
48824;BME280;34640;53.590;10.054;2023-12-20T05:13:03;100278.50;;;6.27;100.00
48824;BME280;34640;53.590;10.054;2023-12-20T05:15:36;100270.34;;;6.21;100.00
48824;BME280;34640;53.590;10.054;2023-12-20T05:18:09;100270.44;;;6.22;100.00
48824;BME280;34640;53.590;10.054;2023-12-20T05:20:43;100282.00;;;6.27;100.00
48824;BME280;34640;53.590;10.054;2023-12-20T05:23:17;100275.50;;;6.21;100.00
48824;BME280;34640;53.590;10.054;2023-12-20T05:25:51;100283.69;;;6.27;100.00
48824;BME280;34640;53.590;10.054;2023-12-20T05:28:26;100288.59;;;6.35;100.00
48824;BME280;34640;53.590;10.054;2023-12-20T05:30:59;100272.00;;;6.32;100.00
48824;BME280;34640;53.590;10.054;2023-12-20T05:33:32;100271.66;;;6.27;100.00
48824;BME280;34640;53.590;10.054;2023-12-20T05:36:05;100260.19;;;6.24;100.00
48824;BME280;34640;53.590;10.054;2023-12-20T05:38:42;100265.69;;;6.28;100.00
48824;BME280;34640;53.590;10.054;2023-12-20T05:41:15;100274.13;;;6.26;100.00
48824;BME280;34640;53.590;10.054;2023-12-20T05:43:49;100269.84;;;6.26;100.00
48824;BME280;34640;53.590;10.054;2023-12-20T05:46:22;100275.25;;;6.29;100.00
48824;BME280;34640;53.590;10.054;2023-12-20T05:48:55;100274.22;;;6.27;100.00
48824;BME280;34640;53.590;10.054;2023-12-20T05:51:28;100269.34;;;6.19;100.00
48824;BME280;34640;53.590;10.054;2023-12-20T05:54:01;100274.50;;;6.19;100.00
48824;BME280;34640;53.590;10.054;2023-12-20T05:56:34;100267.44;;;6.16;100.00
48824;BME280;34640;53.590;10.054;2023-12-20T05:59:08;100274.19;;;6.14;100.00
48824;BME280;34640;53.590;10.054;2023-12-20T06:01:41;100262.75;;;6.10;100.00
48824;BME280;34640;53.590;10.054;2023-12-20T06:04:15;100267.47;;;6.04;100.00
48824;BME280;34640;53.590;10.054;2023-12-20T06:06:48;100258.78;;;6.16;100.00
48824;BME280;34640;53.590;10.054;2023-12-20T06:09:21;100255.41;;;6.17;100.00
48824;BME280;34640;53.590;10.054;2023-12-20T06:11:53;100258.69;;;6.14;100.00
48824;BME280;34640;53.590;10.054;2023-12-20T06:14:28;100243.97;;;6.13;100.00
48824;BME280;34640;53.590;10.054;2023-12-20T06:17:02;100237.44;;;6.18;100.00
48824;BME280;34640;53.590;10.054;2023-12-20T06:19:36;100233.16;;;6.19;100.00
48824;BME280;34640;53.590;10.054;2023-12-20T06:22:09;100237.22;;;6.15;100.00
48824;BME280;34640;53.590;10.054;2023-12-20T06:24:43;100234.31;;;6.10;100.00
48824;BME280;34640;53.590;10.054;2023-12-20T06:27:16;100237.13;;;6.13;100.00
48824;BME280;34640;53.590;10.054;2023-12-20T06:29:51;100234.22;;;6.09;100.00
48824;BME280;34640;53.590;10.054;2023-12-20T06:32:24;100233.19;;;6.07;100.00
48824;BME280;34640;53.590;10.054;2023-12-20T06:34:57;100230.59;;;6.07;100.00
48824;BME280;34640;53.590;10.054;2023-12-20T06:37:32;100222.31;;;6.11;100.00
48824;BME280;34640;53.590;10.054;2023-12-20T06:40:07;100223.59;;;6.18;100.00
48824;BME280;34640;53.590;10.054;2023-12-20T06:42:50;100228.09;;;6.20;100.00
48824;BME280;34640;53.590;10.054;2023-12-20T06:45:39;100220.84;;;6.28;100.00
48824;BME280;34640;53.590;10.054;2023-12-20T06:48:12;100206.22;;;6.28;100.00
48824;BME280;34640;53.590;10.054;2023-12-20T06:50:47;100203.53;;;6.27;100.00
48824;BME280;34640;53.590;10.054;2023-12-20T06:53:20;100204.31;;;6.26;100.00
48824;BME280;34640;53.590;10.054;2023-12-20T06:55:53;100204.81;;;6.20;100.00
48824;BME280;34640;53.590;10.054;2023-12-20T06:58:27;100188.31;;;6.18;100.00
48824;BME280;34640;53.590;10.054;2023-12-20T07:01:02;100195.97;;;6.17;100.00
48824;BME280;34640;53.590;10.054;2023-12-20T07:03:36;100194.38;;;6.19;100.00
48824;BME280;34640;53.590;10.054;2023-12-20T07:06:09;100188.31;;;6.18;100.00
48824;BME280;34640;53.590;10.054;2023-12-20T07:08:42;100184.22;;;6.22;100.00
48824;BME280;34640;53.590;10.054;2023-12-20T07:11:15;100180.97;;;6.24;100.00
48824;BME280;34640;53.590;10.054;2023-12-20T07:13:48;100186.66;;;6.32;100.00
48824;BME280;34640;53.590;10.054;2023-12-20T07:16:22;100182.94;;;6.28;100.00
48824;BME280;34640;53.590;10.054;2023-12-20T07:18:56;100187.22;;;6.28;100.00
48824;BME280;34640;53.590;10.054;2023-12-20T07:21:29;100193.53;;;6.31;100.00
48824;BME280;34640;53.590;10.054;2023-12-20T07:24:03;100197.69;;;6.29;100.00
48824;BME280;34640;53.590;10.054;2023-12-20T07:26:36;100189.34;;;6.33;100.00
48824;BME280;34640;53.590;10.054;2023-12-20T07:29:10;100195.78;;;6.27;100.00
48824;BME280;34640;53.590;10.054;2023-12-20T07:31:46;100184.53;;;6.26;100.00
48824;BME280;34640;53.590;10.054;2023-12-20T07:34:19;100185.66;;;6.30;100.00
48824;BME280;34640;53.590;10.054;2023-12-20T07:36:52;100185.88;;;6.33;100.00
48824;BME280;34640;53.590;10.054;2023-12-20T07:39:25;100173.94;;;6.35;100.00
48824;BME280;34640;53.590;10.054;2023-12-20T07:41:58;100173.13;;;6.36;100.00
48824;BME280;34640;53.590;10.054;2023-12-20T07:44:31;100171.03;;;6.43;100.00
48824;BME280;34640;53.590;10.054;2023-12-20T07:47:05;100172.94;;;6.46;100.00
48824;BME280;34640;53.590;10.054;2023-12-20T07:49:38;100170.34;;;6.46;100.00
48824;BME280;34640;53.590;10.054;2023-12-20T07:52:13;100163.88;;;6.39;100.00
48824;BME280;34640;53.590;10.054;2023-12-20T07:54:45;100158.41;;;6.35;100.00
48824;BME280;34640;53.590;10.054;2023-12-20T07:57:18;100154.25;;;6.37;100.00
48824;BME280;34640;53.590;10.054;2023-12-20T07:59:51;100164.78;;;6.40;100.00
48824;BME280;34640;53.590;10.054;2023-12-20T08:02:25;100168.88;;;6.36;100.00
48824;BME280;34640;53.590;10.054;2023-12-20T08:04:58;100162.19;;;6.40;100.00
48824;BME280;34640;53.590;10.054;2023-12-20T08:07:31;100164.09;;;6.42;100.00
48824;BME280;34640;53.590;10.054;2023-12-20T08:10:06;100158.84;;;6.54;100.00
48824;BME280;34640;53.590;10.054;2023-12-20T08:12:39;100159.63;;;6.53;100.00
48824;BME280;34640;53.590;10.054;2023-12-20T08:15:12;100147.78;;;6.57;100.00
48824;BME280;34640;53.590;10.054;2023-12-20T08:17:47;100141.63;;;6.68;100.00
48824;BME280;34640;53.590;10.054;2023-12-20T08:20:22;100134.28;;;6.74;100.00
48824;BME280;34640;53.590;10.054;2023-12-20T08:23:10;100123.50;;;6.68;100.00
48824;BME280;34640;53.590;10.054;2023-12-20T08:25:43;100128.88;;;6.71;100.00
48824;BME280;34640;53.590;10.054;2023-12-20T08:28:17;100127.59;;;6.78;100.00
48824;BME280;34640;53.590;10.054;2023-12-20T08:30:51;100110.56;;;6.81;100.00
48824;BME280;34640;53.590;10.054;2023-12-20T08:33:28;100119.50;;;6.86;100.00
48824;BME280;34640;53.590;10.054;2023-12-20T08:36:02;100113.25;;;6.83;100.00
48824;BME280;34640;53.590;10.054;2023-12-20T08:38:37;100106.38;;;6.83;100.00
48824;BME280;34640;53.590;10.054;2023-12-20T08:41:11;100104.38;;;6.92;100.00
48824;BME280;34640;53.590;10.054;2023-12-20T08:43:43;100112.91;;;7.04;100.00
48824;BME280;34640;53.590;10.054;2023-12-20T08:46:17;100105.06;;;7.03;100.00
48824;BME280;34640;53.590;10.054;2023-12-20T08:48:51;100107.63;;;7.16;100.00
48824;BME280;34640;53.590;10.054;2023-12-20T08:51:25;100097.06;;;7.13;100.00
48824;BME280;34640;53.590;10.054;2023-12-20T08:53:58;100088.38;;;7.13;100.00
48824;BME280;34640;53.590;10.054;2023-12-20T08:56:31;100092.13;;;7.03;100.00
48824;BME280;34640;53.590;10.054;2023-12-20T08:59:03;100103.38;;;6.90;100.00
48824;BME280;34640;53.590;10.054;2023-12-20T09:01:36;100098.28;;;6.92;100.00
48824;BME280;34640;53.590;10.054;2023-12-20T09:04:10;100065.44;;;6.91;100.00
48824;BME280;34640;53.590;10.054;2023-12-20T09:06:44;100094.56;;;6.73;100.00
48824;BME280;34640;53.590;10.054;2023-12-20T09:09:19;100088.59;;;6.74;100.00
48824;BME280;34640;53.590;10.054;2023-12-20T09:11:52;100101.03;;;6.67;100.00
48824;BME280;34640;53.590;10.054;2023-12-20T09:14:26;100080.75;;;6.60;100.00
48824;BME280;34640;53.590;10.054;2023-12-20T09:17:02;100101.34;;;6.58;100.00
48824;BME280;34640;53.590;10.054;2023-12-20T09:19:36;100108.00;;;6.55;100.00
48824;BME280;34640;53.590;10.054;2023-12-20T09:22:09;100120.84;;;6.53;100.00
48824;BME280;34640;53.590;10.054;2023-12-20T09:24:43;100117.84;;;6.47;100.00
48824;BME280;34640;53.590;10.054;2023-12-20T09:27:16;100109.97;;;6.46;100.00
48824;BME280;34640;53.590;10.054;2023-12-20T09:29:49;100125.81;;;6.37;100.00
48824;BME280;34640;53.590;10.054;2023-12-20T09:32:23;100108.28;;;6.33;100.00
48824;BME280;34640;53.590;10.054;2023-12-20T09:34:57;100118.44;;;6.30;100.00
48824;BME280;34640;53.590;10.054;2023-12-20T09:37:30;100106.28;;;6.29;100.00
48824;BME280;34640;53.590;10.054;2023-12-20T09:40:04;100112.94;;;6.25;100.00
48824;BME280;34640;53.590;10.054;2023-12-20T09:42:41;100140.13;;;6.32;100.00
48824;BME280;34640;53.590;10.054;2023-12-20T09:45:20;100135.81;;;6.19;100.00
48824;BME280;34640;53.590;10.054;2023-12-20T09:47:54;100142.88;;;6.22;100.00
48824;BME280;34640;53.590;10.054;2023-12-20T09:50:30;100143.28;;;6.28;100.00
48824;BME280;34640;53.590;10.054;2023-12-20T09:53:05;100152.06;;;6.30;100.00
48824;BME280;34640;53.590;10.054;2023-12-20T09:55:41;100153.31;;;6.23;100.00
48824;BME280;34640;53.590;10.054;2023-12-20T09:58:14;100146.13;;;6.06;100.00
48824;BME280;34640;53.590;10.054;2023-12-20T10:00:47;100137.38;;;6.04;100.00
48824;BME280;34640;53.590;10.054;2023-12-20T10:03:24;100134.16;;;5.95;100.00
48824;BME280;34640;53.590;10.054;2023-12-20T10:05:59;100134.06;;;5.93;100.00
48824;BME280;34640;53.590;10.054;2023-12-20T10:08:33;100118.78;;;5.96;100.00
48824;BME280;34640;53.590;10.054;2023-12-20T10:11:06;100116.97;;;5.95;100.00
48824;BME280;34640;53.590;10.054;2023-12-20T10:13:40;100114.09;;;5.91;100.00
48824;BME280;34640;53.590;10.054;2023-12-20T10:16:13;100146.09;;;5.81;100.00
48824;BME280;34640;53.590;10.054;2023-12-20T10:18:46;100153.66;;;5.78;100.00
48824;BME280;34640;53.590;10.054;2023-12-20T10:21:20;100159.22;;;5.84;100.00
48824;BME280;34640;53.590;10.054;2023-12-20T10:23:54;100154.97;;;5.84;100.00
48824;BME280;34640;53.590;10.054;2023-12-20T10:26:27;100149.28;;;5.77;100.00
48824;BME280;34640;53.590;10.054;2023-12-20T10:29:00;100146.66;;;5.89;100.00
48824;BME280;34640;53.590;10.054;2023-12-20T10:31:36;100133.19;;;5.93;100.00
48824;BME280;34640;53.590;10.054;2023-12-20T10:34:10;100123.63;;;5.92;100.00
48824;BME280;34640;53.590;10.054;2023-12-20T10:36:45;100102.88;;;6.03;100.00
48824;BME280;34640;53.590;10.054;2023-12-20T10:39:18;100105.09;;;6.10;100.00
48824;BME280;34640;53.590;10.054;2023-12-20T10:41:51;100111.84;;;6.08;100.00
48824;BME280;34640;53.590;10.054;2023-12-20T10:44:24;100107.97;;;6.15;100.00
48824;BME280;34640;53.590;10.054;2023-12-20T10:46:57;100106.59;;;6.20;100.00
48824;BME280;34640;53.590;10.054;2023-12-20T10:49:30;100105.56;;;6.05;100.00
48824;BME280;34640;53.590;10.054;2023-12-20T10:52:11;100100.09;;;6.00;100.00
48824;BME280;34640;53.590;10.054;2023-12-20T10:54:44;100102.56;;;5.99;100.00
48824;BME280;34640;53.590;10.054;2023-12-20T10:57:18;100102.47;;;5.97;100.00
48824;BME280;34640;53.590;10.054;2023-12-20T10:59:53;100113.09;;;6.02;100.00
48824;BME280;34640;53.590;10.054;2023-12-20T11:02:29;100105.66;;;5.93;100.00
48824;BME280;34640;53.590;10.054;2023-12-20T11:05:06;100103.06;;;5.93;100.00
48824;BME280;34640;53.590;10.054;2023-12-20T11:07:48;100100.59;;;5.95;100.00
48824;BME280;34640;53.590;10.054;2023-12-20T11:10:26;100107.56;;;5.84;100.00
48824;BME280;34640;53.590;10.054;2023-12-20T11:13:07;100112.41;;;5.91;100.00
48824;BME280;34640;53.590;10.054;2023-12-20T11:15:44;100119.13;;;5.89;100.00
48824;BME280;34640;53.590;10.054;2023-12-20T11:18:17;100141.72;;;5.92;100.00
48824;BME280;34640;53.590;10.054;2023-12-20T11:20:51;100153.06;;;5.82;100.00
48824;BME280;34640;53.590;10.054;2023-12-20T11:23:25;100140.81;;;5.66;100.00
48824;BME280;34640;53.590;10.054;2023-12-20T11:25:58;100154.28;;;5.62;100.00
48824;BME280;34640;53.590;10.054;2023-12-20T11:28:31;100135.06;;;5.45;100.00
48824;BME280;34640;53.590;10.054;2023-12-20T11:31:05;100137.34;;;5.29;100.00
48824;BME280;34640;53.590;10.054;2023-12-20T11:33:39;100150.16;;;5.28;100.00
48824;BME280;34640;53.590;10.054;2023-12-20T11:36:13;100121.00;;;5.17;100.00
48824;BME280;34640;53.590;10.054;2023-12-20T11:38:56;100111.81;;;5.09;100.00
48824;BME280;34640;53.590;10.054;2023-12-20T11:41:32;100129.41;;;5.14;100.00
48824;BME280;34640;53.590;10.054;2023-12-20T11:44:07;100130.97;;;5.24;100.00
48824;BME280;34640;53.590;10.054;2023-12-20T11:46:41;100128.94;;;5.20;100.00
48824;BME280;34640;53.590;10.054;2023-12-20T11:49:14;100114.72;;;5.13;100.00
48824;BME280;34640;53.590;10.054;2023-12-20T11:51:47;100122.25;;;5.10;100.00
48824;BME280;34640;53.590;10.054;2023-12-20T11:54:21;100106.78;;;5.10;100.00
48824;BME280;34640;53.590;10.054;2023-12-20T11:56:54;100114.03;;;5.16;100.00
48824;BME280;34640;53.590;10.054;2023-12-20T11:59:27;100118.50;;;5.30;100.00
48824;BME280;34640;53.590;10.054;2023-12-20T12:02:00;100120.59;;;5.36;100.00
48824;BME280;34640;53.590;10.054;2023-12-20T12:04:34;100125.63;;;5.46;100.00
48824;BME280;34640;53.590;10.054;2023-12-20T12:07:07;100128.72;;;5.53;100.00
48824;BME280;34640;53.590;10.054;2023-12-20T12:09:42;100127.56;;;5.62;100.00
48824;BME280;34640;53.590;10.054;2023-12-20T12:12:16;100125.88;;;5.62;100.00
48824;BME280;34640;53.590;10.054;2023-12-20T12:14:51;100119.72;;;5.60;100.00
48824;BME280;34640;53.590;10.054;2023-12-20T12:17:24;100115.78;;;5.65;100.00
48824;BME280;34640;53.590;10.054;2023-12-20T12:20:02;100111.41;;;5.64;100.00
48824;BME280;34640;53.590;10.054;2023-12-20T12:22:37;100100.16;;;5.64;100.00
48824;BME280;34640;53.590;10.054;2023-12-20T12:25:13;100102.72;;;5.64;100.00
48824;BME280;34640;53.590;10.054;2023-12-20T12:27:46;100104.97;;;5.71;100.00
48824;BME280;34640;53.590;10.054;2023-12-20T12:30:20;100097.50;;;5.75;100.00
48824;BME280;34640;53.590;10.054;2023-12-20T12:32:53;100102.28;;;5.82;100.00
48824;BME280;34640;53.590;10.054;2023-12-20T12:35:26;100098.59;;;5.91;100.00
48824;BME280;34640;53.590;10.054;2023-12-20T12:37:59;100093.22;;;6.01;100.00
48824;BME280;34640;53.590;10.054;2023-12-20T12:40:36;100101.59;;;6.23;100.00
48824;BME280;34640;53.590;10.054;2023-12-20T12:43:09;100094.84;;;6.25;100.00
48824;BME280;34640;53.590;10.054;2023-12-20T12:45:42;100097.75;;;6.30;100.00
48824;BME280;34640;53.590;10.054;2023-12-20T12:48:15;100097.53;;;6.27;100.00
48824;BME280;34640;53.590;10.054;2023-12-20T12:50:48;100088.59;;;6.22;100.00
48824;BME280;34640;53.590;10.054;2023-12-20T12:53:23;100088.19;;;6.29;100.00
48824;BME280;34640;53.590;10.054;2023-12-20T12:55:58;100094.38;;;6.31;100.00
48824;BME280;34640;53.590;10.054;2023-12-20T12:58:31;100096.97;;;6.31;100.00
48824;BME280;34640;53.590;10.054;2023-12-20T13:01:04;100103.31;;;6.23;100.00
48824;BME280;34640;53.590;10.054;2023-12-20T13:03:37;100096.84;;;6.16;100.00
48824;BME280;34640;53.590;10.054;2023-12-20T13:06:10;100100.72;;;6.23;100.00
48824;BME280;34640;53.590;10.054;2023-12-20T13:08:43;100100.13;;;6.27;100.00
48824;BME280;34640;53.590;10.054;2023-12-20T13:11:17;100101.91;;;6.28;100.00
48824;BME280;34640;53.590;10.054;2023-12-20T13:13:50;100098.34;;;6.39;100.00